sensor_id;sensor_type;location;lat;lon;timestamp;pressure;altitude;pressure_sealevel;temperature;humidity
52291;BME280;39663;45.432;28.050;2023-10-19T00:02:34;101349.56;;;13.83;41.77
52291;BME280;39663;45.432;28.050;2023-10-19T00:03:06;101349.72;;;13.80;41.31
52291;BME280;39663;45.432;28.050;2023-10-19T00:03:38;101351.86;;;13.69;41.70
52291;BME280;39663;45.432;28.050;2023-10-19T00:04:10;101354.06;;;13.70;41.73
52291;BME280;39663;45.432;28.050;2023-10-19T00:04:41;101353.21;;;13.51;41.56
52291;BME280;39663;45.432;28.050;2023-10-19T00:05:13;101353.49;;;13.66;42.14
52291;BME280;39663;45.432;28.050;2023-10-19T00:05:46;101352.61;;;13.47;41.99
52291;BME280;39663;45.432;28.050;2023-10-19T00:06:18;101348.08;;;13.64;41.56
52291;BME280;39663;45.432;28.050;2023-10-19T00:06:49;101350.99;;;13.89;40.96
52291;BME280;39663;45.432;28.050;2023-10-19T00:07:20;101351.18;;;13.48;41.74
52291;BME280;39663;45.432;28.050;2023-10-19T00:07:52;101349.06;;;13.46;41.28
52291;BME280;39663;45.432;28.050;2023-10-19T00:08:23;101352.95;;;13.60;41.28
52291;BME280;39663;45.432;28.050;2023-10-19T00:08:55;101350.93;;;13.21;41.65
52291;BME280;39663;45.432;28.050;2023-10-19T00:09:27;101347.94;;;13.32;41.66
52291;BME280;39663;45.432;28.050;2023-10-19T00:09:59;101348.44;;;13.28;41.77
52291;BME280;39663;45.432;28.050;2023-10-19T00:10:30;101348.81;;;13.48;41.96
52291;BME280;39663;45.432;28.050;2023-10-19T00:11:02;101348.01;;;12.50;41.99
52291;BME280;39663;45.432;28.050;2023-10-19T00:11:34;101347.56;;;13.39;41.57
52291;BME280;39663;45.432;28.050;2023-10-19T00:12:06;101346.61;;;13.46;41.67
52291;BME280;39663;45.432;28.050;2023-10-19T00:12:38;101346.06;;;13.52;42.59
52291;BME280;39663;45.432;28.050;2023-10-19T00:13:10;101347.58;;;13.53;41.53
52291;BME280;39663;45.432;28.050;2023-10-19T00:13:42;101345.77;;;13.55;41.92
52291;BME280;39663;45.432;28.050;2023-10-19T00:14:14;101346.75;;;13.57;41.66
52291;BME280;39663;45.432;28.050;2023-10-19T00:14:46;101348.17;;;12.60;41.72
52291;BME280;39663;45.432;28.050;2023-10-19T00:15:17;101345.89;;;12.38;41.70
52291;BME280;39663;45.432;28.050;2023-10-19T00:15:49;101345.66;;;13.11;41.38
52291;BME280;39663;45.432;28.050;2023-10-19T00:16:20;101345.67;;;13.33;41.50
52291;BME280;39663;45.432;28.050;2023-10-19T00:16:52;101343.41;;;13.32;41.42
52291;BME280;39663;45.432;28.050;2023-10-19T00:17:23;101344.50;;;13.46;42.33
52291;BME280;39663;45.432;28.050;2023-10-19T00:17:55;101345.95;;;13.54;41.79
52291;BME280;39663;45.432;28.050;2023-10-19T00:18:26;101343.79;;;13.60;41.30
52291;BME280;39663;45.432;28.050;2023-10-19T00:18:58;101343.92;;;13.71;41.14
52291;BME280;39663;45.432;28.050;2023-10-19T00:19:30;101343.39;;;13.60;41.75
52291;BME280;39663;45.432;28.050;2023-10-19T00:20:01;101343.41;;;13.68;41.50
52291;BME280;39663;45.432;28.050;2023-10-19T00:20:32;101344.19;;;13.55;42.17
52291;BME280;39663;45.432;28.050;2023-10-19T00:21:04;101343.17;;;13.59;42.04
52291;BME280;39663;45.432;28.050;2023-10-19T00:21:36;101342.82;;;13.61;41.95
52291;BME280;39663;45.432;28.050;2023-10-19T00:22:07;101343.00;;;13.36;42.32
52291;BME280;39663;45.432;28.050;2023-10-19T00:22:39;101341.69;;;13.35;42.71
52291;BME280;39663;45.432;28.050;2023-10-19T00:23:11;101339.71;;;13.46;42.49
52291;BME280;39663;45.432;28.050;2023-10-19T00:23:42;101340.43;;;13.34;41.78
52291;BME280;39663;45.432;28.050;2023-10-19T00:24:14;101339.28;;;13.57;42.14
52291;BME280;39663;45.432;28.050;2023-10-19T00:24:45;101338.24;;;13.23;42.04
52291;BME280;39663;45.432;28.050;2023-10-19T00:25:17;101339.80;;;13.18;42.12
52291;BME280;39663;45.432;28.050;2023-10-19T00:25:48;101339.69;;;13.32;41.91
52291;BME280;39663;45.432;28.050;2023-10-19T00:26:20;101340.75;;;13.00;42.01
52291;BME280;39663;45.432;28.050;2023-10-19T00:26:51;101340.78;;;13.31;42.71
52291;BME280;39663;45.432;28.050;2023-10-19T00:27:23;101342.56;;;12.88;42.46
52291;BME280;39663;45.432;28.050;2023-10-19T00:27:54;101341.33;;;13.06;43.25
52291;BME280;39663;45.432;28.050;2023-10-19T00:28:27;101338.69;;;13.14;42.83
52291;BME280;39663;45.432;28.050;2023-10-19T00:28:58;101342.10;;;12.98;42.86
52291;BME280;39663;45.432;28.050;2023-10-19T00:29:30;101341.58;;;13.27;42.49
52291;BME280;39663;45.432;28.050;2023-10-19T00:30:02;101343.24;;;13.31;42.26
52291;BME280;39663;45.432;28.050;2023-10-19T00:30:33;101341.77;;;13.27;42.05
52291;BME280;39663;45.432;28.050;2023-10-19T00:31:05;101342.23;;;12.94;42.70
52291;BME280;39663;45.432;28.050;2023-10-19T00:31:36;101341.64;;;13.27;42.24
52291;BME280;39663;45.432;28.050;2023-10-19T00:32:08;101341.83;;;13.10;42.14
52291;BME280;39663;45.432;28.050;2023-10-19T00:32:39;101341.10;;;13.26;42.96
52291;BME280;39663;45.432;28.050;2023-10-19T00:33:11;101339.55;;;13.31;43.03
52291;BME280;39663;45.432;28.050;2023-10-19T00:33:43;101340.62;;;13.39;43.36
52291;BME280;39663;45.432;28.050;2023-10-19T00:34:14;101339.20;;;13.23;42.48
52291;BME280;39663;45.432;28.050;2023-10-19T00:34:46;101340.63;;;13.38;42.42
52291;BME280;39663;45.432;28.050;2023-10-19T00:35:17;101338.28;;;13.47;41.90
52291;BME280;39663;45.432;28.050;2023-10-19T00:35:49;101337.41;;;13.69;41.67
52291;BME280;39663;45.432;28.050;2023-10-19T00:36:21;101338.32;;;13.40;42.45
52291;BME280;39663;45.432;28.050;2023-10-19T00:36:53;101338.49;;;13.52;41.90
52291;BME280;39663;45.432;28.050;2023-10-19T00:37:24;101338.53;;;13.91;41.77
52291;BME280;39663;45.432;28.050;2023-10-19T00:37:56;101339.42;;;13.42;41.79
52291;BME280;39663;45.432;28.050;2023-10-19T00:38:28;101338.05;;;13.36;41.94
52291;BME280;39663;45.432;28.050;2023-10-19T00:38:59;101334.92;;;13.53;42.18
52291;BME280;39663;45.432;28.050;2023-10-19T00:39:31;101334.86;;;13.55;42.00
52291;BME280;39663;45.432;28.050;2023-10-19T00:40:03;101337.23;;;13.54;41.78
52291;BME280;39663;45.432;28.050;2023-10-19T00:40:34;101335.07;;;13.51;41.76
52291;BME280;39663;45.432;28.050;2023-10-19T00:41:07;101335.27;;;13.29;41.78
52291;BME280;39663;45.432;28.050;2023-10-19T00:41:39;101335.92;;;13.24;42.55
52291;BME280;39663;45.432;28.050;2023-10-19T00:42:10;101331.91;;;13.48;42.09
52291;BME280;39663;45.432;28.050;2023-10-19T00:42:42;101331.52;;;13.39;42.38
52291;BME280;39663;45.432;28.050;2023-10-19T00:43:13;101331.68;;;13.70;41.90
52291;BME280;39663;45.432;28.050;2023-10-19T00:43:57;101330.53;;;13.42;42.03
52291;BME280;39663;45.432;28.050;2023-10-19T00:44:29;101332.52;;;13.64;42.15
52291;BME280;39663;45.432;28.050;2023-10-19T00:45:00;101328.48;;;13.76;41.92
52291;BME280;39663;45.432;28.050;2023-10-19T00:45:32;101327.78;;;14.05;41.44
52291;BME280;39663;45.432;28.050;2023-10-19T00:46:04;101327.54;;;13.88;41.40
52291;BME280;39663;45.432;28.050;2023-10-19T00:46:35;101327.54;;;13.65;41.56
52291;BME280;39663;45.432;28.050;2023-10-19T00:47:07;101325.77;;;13.81;41.39
52291;BME280;39663;45.432;28.050;2023-10-19T00:47:38;101325.35;;;13.88;41.59
52291;BME280;39663;45.432;28.050;2023-10-19T00:48:10;101327.44;;;13.77;41.13
52291;BME280;39663;45.432;28.050;2023-10-19T00:48:47;101325.84;;;13.93;41.11
52291;BME280;39663;45.432;28.050;2023-10-19T00:49:19;101326.68;;;13.58;42.09
52291;BME280;39663;45.432;28.050;2023-10-19T00:49:50;101327.04;;;13.63;41.22
52291;BME280;39663;45.432;28.050;2023-10-19T00:50:22;101328.18;;;13.67;41.35
52291;BME280;39663;45.432;28.050;2023-10-19T00:50:53;101328.78;;;13.31;41.93
52291;BME280;39663;45.432;28.050;2023-10-19T00:51:28;101326.81;;;13.51;41.63
52291;BME280;39663;45.432;28.050;2023-10-19T00:52:00;101328.78;;;13.49;41.84
52291;BME280;39663;45.432;28.050;2023-10-19T00:52:32;101330.76;;;13.49;42.06
52291;BME280;39663;45.432;28.050;2023-10-19T00:53:04;101330.76;;;13.43;42.01
52291;BME280;39663;45.432;28.050;2023-10-19T00:53:37;101331.38;;;13.42;41.84
52291;BME280;39663;45.432;28.050;2023-10-19T00:54:11;101332.10;;;13.24;42.14
52291;BME280;39663;45.432;28.050;2023-10-19T00:54:46;101332.56;;;13.14;42.21
52291;BME280;39663;45.432;28.050;2023-10-19T00:55:18;101337.70;;;12.76;42.81
52291;BME280;39663;45.432;28.050;2023-10-19T00:55:50;101338.39;;;12.97;42.86
52291;BME280;39663;45.432;28.050;2023-10-19T00:56:23;101339.23;;;12.72;43.47
52291;BME280;39663;45.432;28.050;2023-10-19T00:56:55;101336.49;;;12.79;42.90
52291;BME280;39663;45.432;28.050;2023-10-19T00:57:28;101337.39;;;12.78;42.90
52291;BME280;39663;45.432;28.050;2023-10-19T00:58:00;101334.75;;;12.77;43.51
52291;BME280;39663;45.432;28.050;2023-10-19T00:58:33;101336.72;;;13.08;43.11
52291;BME280;39663;45.432;28.050;2023-10-19T00:59:05;101331.82;;;12.93;43.24
52291;BME280;39663;45.432;28.050;2023-10-19T00:59:37;101329.79;;;12.98;42.81
52291;BME280;39663;45.432;28.050;2023-10-19T01:00:10;101326.59;;;13.24;42.62
52291;BME280;39663;45.432;28.050;2023-10-19T01:00:41;101326.09;;;12.97;43.08
52291;BME280;39663;45.432;28.050;2023-10-19T01:01:13;101327.90;;;13.16;42.32
52291;BME280;39663;45.432;28.050;2023-10-19T01:01:46;101326.26;;;12.96;42.30
52291;BME280;39663;45.432;28.050;2023-10-19T01:02:18;101324.75;;;13.48;42.50
52291;BME280;39663;45.432;28.050;2023-10-19T01:02:50;101325.68;;;12.92;42.75
52291;BME280;39663;45.432;28.050;2023-10-19T01:03:22;101325.35;;;13.07;42.93
52291;BME280;39663;45.432;28.050;2023-10-19T01:03:53;101327.09;;;13.04;42.97
52291;BME280;39663;45.432;28.050;2023-10-19T01:04:24;101326.45;;;12.76;43.22
52291;BME280;39663;45.432;28.050;2023-10-19T01:04:57;101326.15;;;12.90;42.93
52291;BME280;39663;45.432;28.050;2023-10-19T01:05:28;101324.92;;;12.84;42.87
52291;BME280;39663;45.432;28.050;2023-10-19T01:06:01;101327.96;;;12.88;42.86
52291;BME280;39663;45.432;28.050;2023-10-19T01:06:33;101328.09;;;12.95;43.36
52291;BME280;39663;45.432;28.050;2023-10-19T01:07:05;101323.32;;;12.87;43.08
52291;BME280;39663;45.432;28.050;2023-10-19T01:07:37;101321.62;;;13.20;42.68
52291;BME280;39663;45.432;28.050;2023-10-19T01:08:09;101323.60;;;12.83;42.85
52291;BME280;39663;45.432;28.050;2023-10-19T01:08:40;101325.78;;;12.81;43.04
52291;BME280;39663;45.432;28.050;2023-10-19T01:09:12;101321.00;;;12.95;43.72
52291;BME280;39663;45.432;28.050;2023-10-19T01:09:44;101320.87;;;13.05;43.61
52291;BME280;39663;45.432;28.050;2023-10-19T01:10:16;101317.91;;;12.98;42.85
52291;BME280;39663;45.432;28.050;2023-10-19T01:10:48;101315.60;;;12.87;43.54
52291;BME280;39663;45.432;28.050;2023-10-19T01:11:21;101316.79;;;12.94;43.29
52291;BME280;39663;45.432;28.050;2023-10-19T01:11:52;101315.97;;;13.12;42.72
52291;BME280;39663;45.432;28.050;2023-10-19T01:12:24;101316.43;;;12.93;43.04
52291;BME280;39663;45.432;28.050;2023-10-19T01:12:56;101315.62;;;12.87;42.93
52291;BME280;39663;45.432;28.050;2023-10-19T01:13:27;101314.69;;;13.07;43.29
52291;BME280;39663;45.432;28.050;2023-10-19T01:13:59;101315.29;;;13.15;42.98
52291;BME280;39663;45.432;28.050;2023-10-19T01:14:30;101313.43;;;13.06;42.51
52291;BME280;39663;45.432;28.050;2023-10-19T01:15:06;101313.20;;;13.04;42.91
52291;BME280;39663;45.432;28.050;2023-10-19T01:15:37;101313.70;;;13.35;43.01
52291;BME280;39663;45.432;28.050;2023-10-19T01:16:13;101313.37;;;13.11;42.35
52291;BME280;39663;45.432;28.050;2023-10-19T01:16:45;101310.06;;;13.11;42.44
52291;BME280;39663;45.432;28.050;2023-10-19T01:17:16;101313.01;;;13.19;43.07
52291;BME280;39663;45.432;28.050;2023-10-19T01:17:50;101311.75;;;13.10;42.57
52291;BME280;39663;45.432;28.050;2023-10-19T01:18:22;101312.81;;;13.13;42.64
52291;BME280;39663;45.432;28.050;2023-10-19T01:18:53;101314.37;;;12.97;42.57
52291;BME280;39663;45.432;28.050;2023-10-19T01:19:25;101313.52;;;13.19;42.62
52291;BME280;39663;45.432;28.050;2023-10-19T01:19:57;101314.41;;;13.23;42.41
52291;BME280;39663;45.432;28.050;2023-10-19T01:20:30;101312.68;;;13.19;42.42
52291;BME280;39663;45.432;28.050;2023-10-19T01:21:02;101314.83;;;13.52;42.10
52291;BME280;39663;45.432;28.050;2023-10-19T01:21:34;101315.08;;;13.06;42.39
52291;BME280;39663;45.432;28.050;2023-10-19T01:22:05;101315.89;;;13.37;42.17
52291;BME280;39663;45.432;28.050;2023-10-19T01:22:37;101316.88;;;13.30;42.36
52291;BME280;39663;45.432;28.050;2023-10-19T01:23:09;101318.37;;;13.37;41.94
52291;BME280;39663;45.432;28.050;2023-10-19T01:23:40;101317.55;;;13.32;42.12
52291;BME280;39663;45.432;28.050;2023-10-19T01:24:12;101315.50;;;13.31;42.12
52291;BME280;39663;45.432;28.050;2023-10-19T01:24:43;101317.47;;;13.10;42.21
52291;BME280;39663;45.432;28.050;2023-10-19T01:25:15;101317.09;;;13.26;42.15
52291;BME280;39663;45.432;28.050;2023-10-19T01:25:48;101316.90;;;13.09;42.20
52291;BME280;39663;45.432;28.050;2023-10-19T01:26:21;101314.30;;;13.25;42.46
52291;BME280;39663;45.432;28.050;2023-10-19T01:26:52;101315.79;;;12.99;43.14
52291;BME280;39663;45.432;28.050;2023-10-19T01:27:24;101314.39;;;13.22;42.41
52291;BME280;39663;45.432;28.050;2023-10-19T01:27:56;101313.72;;;13.22;42.42
52291;BME280;39663;45.432;28.050;2023-10-19T01:28:29;101312.14;;;12.87;42.75
52291;BME280;39663;45.432;28.050;2023-10-19T01:29:01;101314.67;;;12.99;43.24
52291;BME280;39663;45.432;28.050;2023-10-19T01:29:32;101315.44;;;12.85;42.97
52291;BME280;39663;45.432;28.050;2023-10-19T01:30:05;101316.27;;;12.81;42.93
52291;BME280;39663;45.432;28.050;2023-10-19T01:30:37;101314.96;;;12.97;42.90
52291;BME280;39663;45.432;28.050;2023-10-19T01:31:10;101314.56;;;12.96;43.24
52291;BME280;39663;45.432;28.050;2023-10-19T01:31:42;101315.05;;;12.70;43.26
52291;BME280;39663;45.432;28.050;2023-10-19T01:32:13;101315.92;;;12.31;43.66
52291;BME280;39663;45.432;28.050;2023-10-19T01:32:45;101315.17;;;12.19;43.97
52291;BME280;39663;45.432;28.050;2023-10-19T01:33:17;101313.34;;;12.32;44.13
52291;BME280;39663;45.432;28.050;2023-10-19T01:33:49;101313.56;;;12.17;44.17
52291;BME280;39663;45.432;28.050;2023-10-19T01:34:20;101311.16;;;12.21;44.33
52291;BME280;39663;45.432;28.050;2023-10-19T01:34:52;101311.36;;;12.26;44.40
52291;BME280;39663;45.432;28.050;2023-10-19T01:35:24;101312.35;;;12.19;44.54
52291;BME280;39663;45.432;28.050;2023-10-19T01:35:56;101314.98;;;12.01;44.93
52291;BME280;39663;45.432;28.050;2023-10-19T01:36:28;101313.05;;;11.84;45.11
52291;BME280;39663;45.432;28.050;2023-10-19T01:36:59;101312.93;;;11.70;45.39
52291;BME280;39663;45.432;28.050;2023-10-19T01:37:31;101309.53;;;12.22;44.91
52291;BME280;39663;45.432;28.050;2023-10-19T01:38:03;101310.09;;;11.94;45.18
52291;BME280;39663;45.432;28.050;2023-10-19T01:38:35;101309.87;;;11.83;45.32
52291;BME280;39663;45.432;28.050;2023-10-19T01:39:06;101308.23;;;11.93;45.31
52291;BME280;39663;45.432;28.050;2023-10-19T01:39:37;101308.89;;;11.80;45.48
52291;BME280;39663;45.432;28.050;2023-10-19T01:40:10;101309.57;;;12.03;45.55
52291;BME280;39663;45.432;28.050;2023-10-19T01:40:42;101310.63;;;11.72;46.20
52291;BME280;39663;45.432;28.050;2023-10-19T01:41:14;101308.54;;;11.70;46.00
52291;BME280;39663;45.432;28.050;2023-10-19T01:41:46;101307.86;;;11.85;46.03
52291;BME280;39663;45.432;28.050;2023-10-19T01:42:17;101306.24;;;11.90;46.07
52291;BME280;39663;45.432;28.050;2023-10-19T01:42:49;101305.46;;;11.78;46.32
52291;BME280;39663;45.432;28.050;2023-10-19T01:43:21;101307.59;;;11.31;46.88
52291;BME280;39663;45.432;28.050;2023-10-19T01:43:53;101306.77;;;11.65;46.69
52291;BME280;39663;45.432;28.050;2023-10-19T01:44:25;101304.46;;;11.76;46.77
52291;BME280;39663;45.432;28.050;2023-10-19T01:44:57;101305.58;;;11.62;47.25
52291;BME280;39663;45.432;28.050;2023-10-19T01:45:28;101303.62;;;11.62;46.98
52291;BME280;39663;45.432;28.050;2023-10-19T01:46:01;101302.26;;;11.53;47.22
52291;BME280;39663;45.432;28.050;2023-10-19T01:46:34;101301.86;;;11.46;47.46
52291;BME280;39663;45.432;28.050;2023-10-19T01:47:06;101302.22;;;11.25;47.32
52291;BME280;39663;45.432;28.050;2023-10-19T01:47:38;101302.61;;;11.58;47.25
52291;BME280;39663;45.432;28.050;2023-10-19T01:48:09;101302.19;;;11.52;47.32
52291;BME280;39663;45.432;28.050;2023-10-19T01:48:42;101301.20;;;11.57;47.37
52291;BME280;39663;45.432;28.050;2023-10-19T01:49:14;101303.00;;;11.36;47.33
52291;BME280;39663;45.432;28.050;2023-10-19T01:49:45;101304.80;;;11.34;47.46
52291;BME280;39663;45.432;28.050;2023-10-19T01:50:17;101303.87;;;11.37;47.83
52291;BME280;39663;45.432;28.050;2023-10-19T01:50:49;101303.95;;;11.62;47.70
52291;BME280;39663;45.432;28.050;2023-10-19T01:51:21;101304.14;;;11.16;48.13
52291;BME280;39663;45.432;28.050;2023-10-19T01:51:53;101303.75;;;11.38;47.93
52291;BME280;39663;45.432;28.050;2023-10-19T01:52:25;101301.56;;;11.37;47.96
52291;BME280;39663;45.432;28.050;2023-10-19T01:52:57;101299.83;;;11.45;47.62
52291;BME280;39663;45.432;28.050;2023-10-19T01:53:28;101300.97;;;11.35;47.99
52291;BME280;39663;45.432;28.050;2023-10-19T01:54:01;101300.46;;;11.52;47.72
52291;BME280;39663;45.432;28.050;2023-10-19T01:54:32;101300.51;;;11.60;47.58
52291;BME280;39663;45.432;28.050;2023-10-19T01:55:05;101299.60;;;11.68;47.51
52291;BME280;39663;45.432;28.050;2023-10-19T01:55:38;101300.70;;;12.13;47.34
52291;BME280;39663;45.432;28.050;2023-10-19T01:56:09;101301.91;;;11.55;47.71
52291;BME280;39663;45.432;28.050;2023-10-19T01:56:42;101302.67;;;11.50;47.85
52291;BME280;39663;45.432;28.050;2023-10-19T01:57:13;101302.69;;;11.53;47.81
52291;BME280;39663;45.432;28.050;2023-10-19T01:57:45;101303.41;;;11.60;47.75
52291;BME280;39663;45.432;28.050;2023-10-19T01:58:16;101303.68;;;11.97;47.83
52291;BME280;39663;45.432;28.050;2023-10-19T01:58:48;101303.80;;;11.53;47.91
52291;BME280;39663;45.432;28.050;2023-10-19T01:59:22;101302.67;;;11.57;47.82
52291;BME280;39663;45.432;28.050;2023-10-19T01:59:54;101302.40;;;11.63;47.71
52291;BME280;39663;45.432;28.050;2023-10-19T02:00:25;101303.01;;;11.56;47.89
52291;BME280;39663;45.432;28.050;2023-10-19T02:00:57;101303.40;;;11.49;47.93
52291;BME280;39663;45.432;28.050;2023-10-19T02:01:28;101305.06;;;11.44;48.07
52291;BME280;39663;45.432;28.050;2023-10-19T02:02:00;101305.39;;;11.37;48.34
52291;BME280;39663;45.432;28.050;2023-10-19T02:02:32;101304.81;;;11.61;48.35
52291;BME280;39663;45.432;28.050;2023-10-19T02:03:07;101302.73;;;11.57;47.94
52291;BME280;39663;45.432;28.050;2023-10-19T02:03:39;101301.18;;;11.62;47.88
52291;BME280;39663;45.432;28.050;2023-10-19T02:04:11;101302.00;;;11.58;48.09
52291;BME280;39663;45.432;28.050;2023-10-19T02:04:43;101301.57;;;11.67;47.87
52291;BME280;39663;45.432;28.050;2023-10-19T02:05:14;101300.79;;;11.55;48.20
52291;BME280;39663;45.432;28.050;2023-10-19T02:05:46;101300.61;;;11.43;48.30
52291;BME280;39663;45.432;28.050;2023-10-19T02:06:17;101303.10;;;11.54;48.49
52291;BME280;39663;45.432;28.050;2023-10-19T02:06:49;101302.96;;;11.85;48.50
52291;BME280;39663;45.432;28.050;2023-10-19T02:07:21;101302.78;;;11.43;48.60
52291;BME280;39663;45.432;28.050;2023-10-19T02:07:52;101302.32;;;11.44;48.83
52291;BME280;39663;45.432;28.050;2023-10-19T02:08:24;101302.41;;;11.20;49.08
52291;BME280;39663;45.432;28.050;2023-10-19T02:08:58;101301.46;;;11.18;49.03
52291;BME280;39663;45.432;28.050;2023-10-19T02:09:30;101302.62;;;11.26;48.97
52291;BME280;39663;45.432;28.050;2023-10-19T02:10:02;101301.31;;;11.18;49.18
52291;BME280;39663;45.432;28.050;2023-10-19T02:10:34;101302.72;;;11.21;49.10
52291;BME280;39663;45.432;28.050;2023-10-19T02:11:06;101302.52;;;11.30;49.41
52291;BME280;39663;45.432;28.050;2023-10-19T02:11:38;101302.61;;;11.24;49.26
52291;BME280;39663;45.432;28.050;2023-10-19T02:12:09;101304.04;;;11.09;49.49
52291;BME280;39663;45.432;28.050;2023-10-19T02:12:41;101302.69;;;10.97;49.68
52291;BME280;39663;45.432;28.050;2023-10-19T02:13:12;101303.13;;;11.16;49.79
52291;BME280;39663;45.432;28.050;2023-10-19T02:13:44;101305.58;;;11.05;49.96
52291;BME280;39663;45.432;28.050;2023-10-19T02:14:17;101306.22;;;11.29;49.85
52291;BME280;39663;45.432;28.050;2023-10-19T02:14:48;101306.36;;;11.01;49.84
52291;BME280;39663;45.432;28.050;2023-10-19T02:15:20;101306.22;;;10.84;50.18
52291;BME280;39663;45.432;28.050;2023-10-19T02:15:52;101305.63;;;10.94;49.95
52291;BME280;39663;45.432;28.050;2023-10-19T02:16:24;101306.86;;;11.03;49.79
52291;BME280;39663;45.432;28.050;2023-10-19T02:16:56;101305.51;;;11.06;49.78
52291;BME280;39663;45.432;28.050;2023-10-19T02:17:28;101307.44;;;11.12;49.69
52291;BME280;39663;45.432;28.050;2023-10-19T02:18:00;101307.88;;;11.26;49.81
52291;BME280;39663;45.432;28.050;2023-10-19T02:18:31;101307.70;;;11.46;49.78
52291;BME280;39663;45.432;28.050;2023-10-19T02:19:03;101307.54;;;11.54;49.65
52291;BME280;39663;45.432;28.050;2023-10-19T02:19:35;101306.75;;;11.38;49.73
52291;BME280;39663;45.432;28.050;2023-10-19T02:20:08;101309.53;;;11.47;49.43
52291;BME280;39663;45.432;28.050;2023-10-19T02:20:40;101308.15;;;10.95;49.84
52291;BME280;39663;45.432;28.050;2023-10-19T02:21:12;101308.40;;;11.16;49.63
52291;BME280;39663;45.432;28.050;2023-10-19T02:21:43;101307.12;;;11.34;49.49
52291;BME280;39663;45.432;28.050;2023-10-19T02:22:15;101306.69;;;11.58;49.59
52291;BME280;39663;45.432;28.050;2023-10-19T02:22:46;101307.08;;;11.34;49.39
52291;BME280;39663;45.432;28.050;2023-10-19T02:23:18;101306.72;;;11.40;49.29
52291;BME280;39663;45.432;28.050;2023-10-19T02:23:50;101306.95;;;11.68;49.31
52291;BME280;39663;45.432;28.050;2023-10-19T02:24:21;101308.84;;;11.52;49.54
52291;BME280;39663;45.432;28.050;2023-10-19T02:24:53;101308.07;;;11.45;48.73
52291;BME280;39663;45.432;28.050;2023-10-19T02:25:25;101307.22;;;11.76;48.80
52291;BME280;39663;45.432;28.050;2023-10-19T02:25:56;101305.06;;;11.64;47.85
52291;BME280;39663;45.432;28.050;2023-10-19T02:26:28;101306.23;;;11.66;48.34
52291;BME280;39663;45.432;28.050;2023-10-19T02:27:00;101306.87;;;11.68;48.18
52291;BME280;39663;45.432;28.050;2023-10-19T02:27:31;101307.00;;;11.75;47.93
52291;BME280;39663;45.432;28.050;2023-10-19T02:28:04;101306.59;;;12.05;47.78
52291;BME280;39663;45.432;28.050;2023-10-19T02:28:36;101306.29;;;11.94;48.37
52291;BME280;39663;45.432;28.050;2023-10-19T02:29:08;101304.19;;;12.08;47.06
52291;BME280;39663;45.432;28.050;2023-10-19T02:29:39;101304.46;;;12.12;47.22
52291;BME280;39663;45.432;28.050;2023-10-19T02:30:12;101306.94;;;12.06;46.55
52291;BME280;39663;45.432;28.050;2023-10-19T02:30:44;101306.81;;;12.21;46.66
52291;BME280;39663;45.432;28.050;2023-10-19T02:31:16;101305.37;;;12.20;47.09
52291;BME280;39663;45.432;28.050;2023-10-19T02:31:48;101306.04;;;12.31;46.40
52291;BME280;39663;45.432;28.050;2023-10-19T02:32:20;101303.62;;;12.24;46.49
52291;BME280;39663;45.432;28.050;2023-10-19T02:32:51;101302.44;;;12.43;46.67
52291;BME280;39663;45.432;28.050;2023-10-19T02:33:23;101302.87;;;12.55;45.63
52291;BME280;39663;45.432;28.050;2023-10-19T02:33:54;101304.18;;;12.15;46.85
52291;BME280;39663;45.432;28.050;2023-10-19T02:34:26;101301.70;;;12.59;46.81
52291;BME280;39663;45.432;28.050;2023-10-19T02:34:57;101303.59;;;12.72;45.69
52291;BME280;39663;45.432;28.050;2023-10-19T02:35:29;101302.31;;;12.77;45.42
52291;BME280;39663;45.432;28.050;2023-10-19T02:36:01;101303.21;;;12.29;44.91
52291;BME280;39663;45.432;28.050;2023-10-19T02:36:33;101304.18;;;12.65;45.21
52291;BME280;39663;45.432;28.050;2023-10-19T02:37:05;101303.80;;;12.64;45.26
52291;BME280;39663;45.432;28.050;2023-10-19T02:37:37;101302.96;;;12.52;45.00
52291;BME280;39663;45.432;28.050;2023-10-19T02:38:08;101302.72;;;12.55;44.99
52291;BME280;39663;45.432;28.050;2023-10-19T02:38:41;101304.50;;;12.71;44.79
52291;BME280;39663;45.432;28.050;2023-10-19T02:39:14;101304.12;;;12.60;45.99
52291;BME280;39663;45.432;28.050;2023-10-19T02:39:46;101304.77;;;12.66;45.47
52291;BME280;39663;45.432;28.050;2023-10-19T02:40:18;101304.44;;;12.73;46.07
52291;BME280;39663;45.432;28.050;2023-10-19T02:40:49;101303.19;;;12.85;45.81
52291;BME280;39663;45.432;28.050;2023-10-19T02:41:21;101303.18;;;12.70;45.23
52291;BME280;39663;45.432;28.050;2023-10-19T02:41:53;101299.60;;;12.77;44.63
52291;BME280;39663;45.432;28.050;2023-10-19T02:42:24;101299.17;;;12.81;45.13
52291;BME280;39663;45.432;28.050;2023-10-19T02:42:56;101299.72;;;13.10;44.69
52291;BME280;39663;45.432;28.050;2023-10-19T02:43:31;101299.93;;;12.89;44.46
52291;BME280;39663;45.432;28.050;2023-10-19T02:44:03;101298.72;;;12.93;44.33
52291;BME280;39663;45.432;28.050;2023-10-19T02:44:34;101298.65;;;13.20;43.61
52291;BME280;39663;45.432;28.050;2023-10-19T02:45:08;101298.18;;;12.88;43.69
52291;BME280;39663;45.432;28.050;2023-10-19T02:45:39;101299.17;;;12.98;44.59
52291;BME280;39663;45.432;28.050;2023-10-19T02:46:13;101296.80;;;12.82;44.55
52291;BME280;39663;45.432;28.050;2023-10-19T02:46:45;101297.94;;;12.78;44.46
52291;BME280;39663;45.432;28.050;2023-10-19T02:47:16;101299.08;;;12.67;44.40